createdAt,value
2019-05-28T00:00:33.957Z,990.94
2019-05-28T00:01:38.625Z,990.93
2019-05-28T00:02:42.194Z,990.99
2019-05-28T00:03:43.617Z,990.9
2019-05-28T00:04:41.709Z,990.95
2019-05-28T00:05:42.287Z,990.95
2019-05-28T00:06:44.648Z,990.93
2019-05-28T00:07:42.289Z,990.95
2019-05-28T00:08:40.567Z,990.99
2019-05-28T00:09:38.597Z,990.9
2019-05-28T00:10:39.433Z,990.92
2019-05-28T00:11:39.566Z,990.9
2019-05-28T00:12:38.573Z,990.93
2019-05-28T00:13:36.744Z,990.92
2019-05-28T00:14:34.975Z,990.86
2019-05-28T00:15:34.935Z,990.93
2019-05-28T00:16:33.951Z,990.92
2019-05-28T00:17:31.807Z,990.98
2019-05-28T00:18:31.191Z,990.89
2019-05-28T00:19:32.923Z,990.95
2019-05-28T00:20:33.838Z,990.92
2019-05-28T00:21:48.350Z,990.9
2019-05-28T00:22:46.557Z,990.89
2019-05-28T00:23:44.495Z,990.81
2019-05-28T00:24:43.227Z,990.86
2019-05-28T00:25:42.524Z,990.81
2019-05-28T00:26:41.331Z,990.83
2019-05-28T00:27:40.468Z,990.9
2019-05-28T00:28:38.127Z,990.83
2019-05-28T00:29:35.962Z,990.9
2019-05-28T00:30:38.182Z,990.86
2019-05-28T00:31:44.341Z,990.86
2019-05-28T00:32:42.191Z,990.89
2019-05-28T00:33:40.178Z,990.83
2019-05-28T00:34:37.920Z,990.84
2019-05-28T00:35:36.843Z,990.81
2019-05-28T00:36:35.729Z,990.74
2019-05-28T00:37:33.436Z,990.83
2019-05-28T00:38:35.677Z,990.8
2019-05-28T00:39:37.366Z,990.84
2019-05-28T00:40:35.607Z,990.78
2019-05-28T00:41:35.810Z,990.75
2019-05-28T00:42:36.929Z,990.75
2019-05-28T00:43:34.451Z,990.74
2019-05-28T00:44:32.695Z,990.8
2019-05-28T00:45:32.197Z,990.72
2019-05-28T00:46:29.825Z,990.8
2019-05-28T00:47:27.802Z,990.75
2019-05-28T00:48:25.472Z,990.72
2019-05-28T00:49:25.778Z,990.71
2019-05-28T00:50:23.422Z,990.64
2019-05-28T00:51:25.473Z,990.71
2019-05-28T00:52:23.639Z,990.67
2019-05-28T00:53:27.370Z,990.71
2019-05-28T00:54:24.849Z,990.65
2019-05-28T00:55:24.240Z,990.58
2019-05-28T00:56:25.266Z,990.56
2019-05-28T00:57:23.362Z,990.55
2019-05-28T00:58:31.124Z,990.58
2019-05-28T00:59:29.182Z,990.64
2019-05-28T01:00:36.941Z,990.53
2019-05-28T01:00:36.976Z,990.53
2019-05-28T01:01:27.395Z,990.5
2019-05-28T01:02:26.167Z,990.47
2019-05-28T01:03:27.751Z,990.52
2019-05-28T01:04:33.052Z,990.52
2019-05-28T01:05:30.164Z,990.59
2019-05-28T01:06:28.391Z,990.59
2019-05-28T01:07:27.850Z,990.49
2019-05-28T01:08:30.069Z,990.52
2019-05-28T01:09:28.265Z,990.56
2019-05-28T01:10:49.055Z,990.53
2019-05-28T01:11:52.094Z,990.55
2019-05-28T01:12:52.567Z,990.5
2019-05-28T01:13:53.170Z,990.55
2019-05-28T01:14:54.613Z,990.55
2019-05-28T01:15:59.651Z,990.53
2019-05-28T01:16:58.226Z,990.44
2019-05-28T01:17:56.909Z,990.49
2019-05-28T01:18:59.087Z,990.49
2019-05-28T01:19:57.626Z,990.4
2019-05-28T01:20:58.474Z,990.38
2019-05-28T01:21:57.104Z,990.48
2019-05-28T01:22:59.124Z,990.41
2019-05-28T01:23:58.065Z,990.48
2019-05-28T01:24:55.840Z,990.38
2019-05-28T01:25:59.734Z,990.41
2019-05-28T01:26:58.315Z,990.41
2019-05-28T01:27:59.467Z,990.34
2019-05-28T01:29:07.348Z,990.4
2019-05-28T01:30:05.706Z,990.35
2019-05-28T01:31:04.511Z,990.38
2019-05-28T01:32:05.297Z,990.41
2019-05-28T01:33:03.090Z,990.38
2019-05-28T01:34:11.157Z,990.34
2019-05-28T01:35:09.731Z,990.32
2019-05-28T01:36:10.226Z,990.23
2019-05-28T01:37:08.696Z,990.26
2019-05-28T01:38:08.442Z,990.25
2019-05-28T01:39:08.477Z,990.22
2019-05-28T01:40:11.365Z,990.17
2019-05-28T01:41:15.146Z,990.17
2019-05-28T01:42:14.060Z,990.22
2019-05-28T01:43:13.523Z,990.22
2019-05-28T01:44:13.038Z,990.25
2019-05-28T01:45:11.495Z,990.23
2019-05-28T01:46:12.264Z,990.19
2019-05-28T01:47:10.685Z,990.2
2019-05-28T01:48:09.084Z,990.19
2019-05-28T01:49:08.142Z,990.16
2019-05-28T01:50:10.782Z,990.18
2019-05-28T01:51:09.891Z,990.2
2019-05-28T01:52:08.768Z,990.15
2019-05-28T01:53:11.475Z,990.13
2019-05-28T01:54:10.855Z,990.13
2019-05-28T01:55:08.999Z,990.2
2019-05-28T01:56:13.745Z,990.2
2019-05-28T01:57:11.221Z,990.23
2019-05-28T01:58:09.057Z,990.2
2019-05-28T01:59:07.072Z,990.16
2019-05-28T02:00:09.136Z,990.2
2019-05-28T02:01:12.652Z,990.26
2019-05-28T02:01:13.501Z,990.26
2019-05-28T02:02:06.976Z,990.22
2019-05-28T02:03:08.989Z,990.2
2019-05-28T02:04:13.524Z,990.19
2019-05-28T02:05:11.165Z,990.28
2019-05-28T02:06:13.793Z,990.23
2019-05-28T02:07:12.807Z,990.22
2019-05-28T02:08:11.416Z,990.19
2019-05-28T02:09:11.312Z,990.18
2019-05-28T02:10:11.717Z,990.2
2019-05-28T02:11:15.564Z,990.09
2019-05-28T02:12:13.277Z,990.1
2019-05-28T02:13:14.139Z,990.18
2019-05-28T02:14:11.822Z,990.16
2019-05-28T02:15:10.631Z,990.18
2019-05-28T02:16:08.660Z,990.12
2019-05-28T02:17:17.514Z,990.13
2019-05-28T02:18:21.131Z,990.15
2019-05-28T02:19:19.306Z,990.09
2019-05-28T02:20:17.014Z,990.07
2019-05-28T02:21:14.699Z,990.12
2019-05-28T02:22:13.508Z,990.16
2019-05-28T02:23:12.030Z,990.09
2019-05-28T02:24:10.164Z,990.15
2019-05-28T02:25:13.951Z,990.07
2019-05-28T02:26:13.960Z,990.03
2019-05-28T02:27:14.699Z,990.03
2019-05-28T02:28:12.160Z,990.06
2019-05-28T02:29:11.749Z,990.04
2019-05-28T02:30:09.467Z,990
2019-05-28T02:31:07.559Z,990.06
2019-05-28T02:32:05.684Z,990.04
2019-05-28T02:33:13.136Z,989.97
2019-05-28T02:34:14.807Z,990
2019-05-28T02:35:18.880Z,989.96
2019-05-28T02:36:16.972Z,989.94
2019-05-28T02:37:21.720Z,989.96
2019-05-28T02:38:19.521Z,989.96
2019-05-28T02:39:18.439Z,989.93
2019-05-28T02:40:19.327Z,990
2019-05-28T02:41:24.294Z,989.91
2019-05-28T02:42:23.197Z,989.91
2019-05-28T02:43:25.821Z,989.88
2019-05-28T02:44:26.327Z,989.88
2019-05-28T02:45:25.073Z,989.88
2019-05-28T02:46:25.957Z,989.9
2019-05-28T02:47:24.504Z,989.96
2019-05-28T02:48:22.112Z,989.93
2019-05-28T02:49:25.728Z,989.99
2019-05-28T02:50:32.531Z,989.94
2019-05-28T02:51:35.394Z,989.99
2019-05-28T02:52:36.116Z,989.96
2019-05-28T02:53:34.431Z,989.97
2019-05-28T02:54:32.679Z,989.97
2019-05-28T02:55:30.281Z,989.96
2019-05-28T02:56:28.222Z,989.97
2019-05-28T02:57:25.849Z,989.91
2019-05-28T02:58:24.384Z,989.9
2019-05-28T02:59:25.023Z,989.87
2019-05-28T03:00:22.516Z,989.82
2019-05-28T03:01:21.205Z,989.93
2019-05-28T03:02:19.143Z,989.93
2019-05-28T03:03:19.078Z,989.9
2019-05-28T03:04:19.909Z,989.85
2019-05-28T03:05:18.510Z,989.88
2019-05-28T03:06:16.629Z,989.91
2019-05-28T03:07:15.604Z,989.9
2019-05-28T03:08:14.558Z,989.87
2019-05-28T03:09:17.033Z,989.99
2019-05-28T03:10:15.060Z,989.96
2019-05-28T03:11:14.623Z,989.84
2019-05-28T03:12:12.368Z,989.91
2019-05-28T03:13:10.210Z,989.91
2019-05-28T03:14:09.115Z,989.93
2019-05-28T03:15:08.383Z,989.96
2019-05-28T03:16:07.391Z,990
2019-05-28T03:17:07.394Z,989.99
2019-05-28T03:18:21.540Z,989.94
2019-05-28T03:19:19.019Z,989.84
2019-05-28T03:20:21.131Z,989.94
2019-05-28T03:21:20.360Z,989.96
2019-05-28T03:22:19.102Z,989.93
2019-05-28T03:23:19.575Z,989.88
2019-05-28T03:24:20.009Z,989.9
2019-05-28T03:25:19.780Z,989.94
2019-05-28T03:26:19.892Z,989.91
2019-05-28T03:27:17.886Z,989.9
2019-05-28T03:28:23.331Z,989.93
2019-05-28T03:29:24.005Z,989.9
2019-05-28T03:30:21.471Z,989.82
2019-05-28T03:31:23.234Z,989.85
2019-05-28T03:32:21.639Z,989.94
2019-05-28T03:33:19.944Z,989.85
2019-05-28T03:34:17.562Z,989.88
2019-05-28T03:35:16.330Z,989.85
2019-05-28T03:36:19.522Z,989.9
2019-05-28T03:37:22.941Z,989.85
2019-05-28T03:38:23.795Z,989.91
2019-05-28T03:39:23.792Z,989.81
2019-05-28T03:40:26.321Z,989.82
2019-05-28T03:41:28.844Z,989.91
2019-05-28T03:42:29.538Z,989.91
2019-05-28T03:43:27.274Z,989.83
2019-05-28T03:44:31.815Z,989.87
2019-05-28T03:45:39.667Z,989.88
2019-05-28T03:46:37.104Z,989.88
2019-05-28T03:47:36.399Z,989.88
2019-05-28T03:48:34.759Z,989.88
2019-05-28T03:49:36.146Z,989.91
2019-05-28T03:50:34.941Z,989.87
2019-05-28T03:51:32.697Z,989.91
2019-05-28T03:52:33.278Z,989.87
2019-05-28T03:53:37.170Z,989.87
2019-05-28T03:54:45.136Z,989.93
2019-05-28T03:55:44.570Z,989.94
2019-05-28T03:56:44.240Z,989.93
2019-05-28T03:57:43.037Z,989.91
2019-05-28T03:58:49.463Z,990.05
2019-05-28T03:59:47.914Z,989.94
2019-05-28T04:00:45.725Z,989.94
2019-05-28T04:01:50.018Z,989.97
2019-05-28T04:02:51.151Z,990
2019-05-28T04:03:48.899Z,990.02
2019-05-28T04:05:00.990Z,989.99
2019-05-28T04:05:58.580Z,989.9
2019-05-28T04:07:00.612Z,989.99
2019-05-28T04:08:03.153Z,989.99
2019-05-28T04:09:01.339Z,989.99
2019-05-28T04:10:00.914Z,989.86
2019-05-28T04:10:59.175Z,989.94
2019-05-28T04:11:59.101Z,990
2019-05-28T04:12:57.483Z,990.02
2019-05-28T04:13:55.520Z,990
2019-05-28T04:14:59.623Z,990.08
2019-05-28T04:15:57.709Z,990.06
2019-05-28T04:16:56.232Z,990.09
2019-05-28T04:18:06.455Z,990.09
2019-05-28T04:19:05.457Z,990.12
2019-05-28T04:20:03.953Z,990.14
2019-05-28T04:21:03.634Z,990.11
2019-05-28T04:22:06.083Z,990.15
2019-05-28T04:23:03.578Z,990.17
2019-05-28T04:24:05.138Z,990.14
2019-05-28T04:25:04.045Z,990.12
2019-05-28T04:26:02.872Z,990.14
2019-05-28T04:27:01.592Z,990.06
2019-05-28T04:27:59.459Z,990.18
2019-05-28T04:28:59.535Z,990.06
2019-05-28T04:29:57.103Z,990.06
2019-05-28T04:30:59.344Z,990.15
2019-05-28T04:31:58.685Z,990.09
2019-05-28T04:32:56.284Z,990.11
2019-05-28T04:33:53.906Z,990.08
2019-05-28T04:34:55.037Z,990.14
2019-05-28T04:35:55.892Z,990.18
2019-05-28T04:36:53.417Z,990.12
2019-05-28T04:37:58.439Z,990.03
2019-05-28T04:38:56.850Z,990.08
2019-05-28T04:39:55.698Z,990.09
2019-05-28T04:40:55.347Z,990.09
2019-05-28T04:42:07.506Z,990.06
2019-05-28T04:43:04.890Z,990.02
2019-05-28T04:44:04.217Z,990.11
2019-05-28T04:45:06.784Z,990.06
2019-05-28T04:46:05.942Z,990.06
2019-05-28T04:47:08.531Z,989.96
2019-05-28T04:48:04.755Z,989.98
2019-05-28T04:49:02.537Z,990.03
2019-05-28T04:50:01.073Z,990.06
2019-05-28T04:51:02.801Z,990.02
2019-05-28T04:52:08.633Z,990.06
2019-05-28T04:53:10.345Z,990.05
2019-05-28T04:54:12.051Z,990.12
2019-05-28T04:55:10.933Z,990.09
2019-05-28T04:56:09.132Z,990.03
2019-05-28T04:57:08.261Z,990.09
2019-05-28T04:58:07.406Z,990.11
2019-05-28T04:59:14.642Z,990
2019-05-28T05:00:12.537Z,990.03
2019-05-28T05:01:10.362Z,990.05
2019-05-28T05:02:09.765Z,990
2019-05-28T05:03:10.779Z,989.98
2019-05-28T05:04:11.566Z,990.02
2019-05-28T05:05:10.450Z,989.99
2019-05-28T05:06:08.884Z,989.98
2019-05-28T05:07:06.554Z,989.93
2019-05-28T05:08:05.092Z,989.99
2019-05-28T05:09:02.845Z,989.92
2019-05-28T05:10:00.509Z,989.9
2019-05-28T05:10:59.709Z,989.93
2019-05-28T05:11:57.370Z,990
2019-05-28T05:13:00.365Z,989.98
2019-05-28T05:13:57.775Z,989.92
2019-05-28T05:15:01.530Z,989.92
2019-05-28T05:16:04.860Z,989.92
2019-05-28T05:17:06.951Z,989.93
2019-05-28T05:18:06.518Z,989.95
2019-05-28T05:19:08.050Z,990.03
2019-05-28T05:20:11.168Z,989.95
2019-05-28T05:21:09.133Z,989.96
2019-05-28T05:22:09.665Z,989.99
2019-05-28T05:23:09.096Z,989.95
2019-05-28T05:24:17.595Z,989.96
2019-05-28T05:25:16.006Z,989.95
2019-05-28T05:26:15.315Z,989.93
2019-05-28T05:27:14.798Z,989.89
2019-05-28T05:28:12.597Z,989.83
2019-05-28T05:29:12.426Z,989.89
2019-05-28T05:30:18.682Z,989.9
2019-05-28T05:31:17.039Z,989.93
2019-05-28T05:32:14.712Z,989.95
2019-05-28T05:33:19.943Z,989.96
2019-05-28T05:33:20.177Z,989.96
2019-05-28T05:34:13.697Z,989.98
2019-05-28T05:35:17.501Z,990
2019-05-28T05:36:16.263Z,989.99
2019-05-28T05:37:13.857Z,989.93
2019-05-28T05:38:13.663Z,990
2019-05-28T05:39:11.829Z,989.92
2019-05-28T05:40:09.594Z,989.93
2019-05-28T05:41:13.627Z,989.87
2019-05-28T05:42:11.282Z,990.06
2019-05-28T05:43:13.455Z,990.03
2019-05-28T05:44:24.578Z,990.01
2019-05-28T05:45:23.687Z,990.02
2019-05-28T05:46:21.080Z,989.96
2019-05-28T05:47:20.980Z,990.06
2019-05-28T05:48:18.752Z,990.01
2019-05-28T05:49:24.584Z,989.98
2019-05-28T05:50:23.837Z,990.04
2019-05-28T05:51:21.998Z,990.01
2019-05-28T05:52:21.036Z,990.06
2019-05-28T05:53:24.139Z,990.05
2019-05-28T05:54:25.139Z,990.06
2019-05-28T05:55:22.759Z,990.05
2019-05-28T05:56:27.205Z,990.02
2019-05-28T05:57:27.413Z,990.06
2019-05-28T05:58:25.253Z,989.95
2019-05-28T05:59:24.595Z,990.02
2019-05-28T06:00:22.934Z,990.01
2019-05-28T06:01:27.170Z,990.02
2019-05-28T06:02:24.887Z,989.98
2019-05-28T06:03:39.617Z,989.99
2019-05-28T06:03:40.159Z,989.99
2019-05-28T06:03:40.178Z,989.99
2019-05-28T06:04:25.476Z,989.98
2019-05-28T06:05:23.470Z,989.99
2019-05-28T06:06:30.491Z,989.97
2019-05-28T06:07:28.198Z,990.02
2019-05-28T06:08:27.262Z,989.98
2019-05-28T06:09:26.014Z,989.99
2019-05-28T06:10:24.139Z,989.89
2019-05-28T06:11:23.320Z,989.93
2019-05-28T06:12:25.312Z,990.02
2019-05-28T06:13:20.248Z,989.98
2019-05-28T06:14:21.580Z,990.04
2019-05-28T06:15:19.373Z,990.05
2019-05-28T06:16:16.989Z,990.07
2019-05-28T06:17:20.013Z,990.01
2019-05-28T06:18:20.310Z,990.13
2019-05-28T06:19:24.508Z,990.07
2019-05-28T06:20:28.984Z,990.11
2019-05-28T06:21:26.890Z,990.11
2019-05-28T06:22:27.825Z,990.1
2019-05-28T06:23:26.486Z,990.03
2019-05-28T06:24:25.419Z,990.06
2019-05-28T06:25:24.436Z,990.07
2019-05-28T06:26:24.436Z,990.1
2019-05-28T06:27:23.897Z,990.13
2019-05-28T06:28:22.490Z,990.18
2019-05-28T06:29:21.471Z,990.06
2019-05-28T06:30:21.101Z,990.13
2019-05-28T06:31:24.068Z,990.15
2019-05-28T06:32:23.863Z,990.16
2019-05-28T06:33:21.758Z,990.13
2019-05-28T06:34:23.111Z,990.16
2019-05-28T06:35:20.776Z,990.19
2019-05-28T06:36:18.117Z,990.25
2019-05-28T06:37:17.679Z,990.24
2019-05-28T06:38:18.186Z,990.22
2019-05-28T06:39:17.536Z,990.21
2019-05-28T06:40:11.758Z,990.28
2019-05-28T06:41:08.622Z,990.31
2019-05-28T06:42:06.662Z,990.34
2019-05-28T06:43:05.810Z,990.33
2019-05-28T06:44:10.462Z,990.37
2019-05-28T06:45:12.596Z,990.39
2019-05-28T06:46:10.132Z,990.39
2019-05-28T06:47:08.204Z,990.36
2019-05-28T06:48:11.763Z,990.35
2019-05-28T06:49:09.299Z,990.39
2019-05-28T06:50:15.287Z,990.24
2019-05-28T06:51:12.993Z,990.39
2019-05-28T06:52:15.434Z,990.36
2019-05-28T06:53:14.672Z,990.3
2019-05-28T06:54:16.761Z,990.29
2019-05-28T06:55:15.289Z,990.36
2019-05-28T06:56:18.762Z,990.32
2019-05-28T06:57:22.965Z,990.32
2019-05-28T06:57:23.360Z,990.32
2019-05-28T06:58:14.483Z,990.44
2019-05-28T06:59:14.085Z,990.44
2019-05-28T07:00:13.586Z,990.39
2019-05-28T07:01:11.033Z,990.38
2019-05-28T07:02:13.740Z,990.41
2019-05-28T07:03:13.192Z,990.42
2019-05-28T07:04:15.877Z,990.41
2019-05-28T07:04:31.391Z,990.41
2019-05-28T07:04:32.173Z,990.41
2019-05-28T07:05:11.601Z,990.39
2019-05-28T07:06:08.872Z,990.41
2019-05-28T07:07:06.907Z,990.39
2019-05-28T07:08:05.231Z,990.42
2019-05-28T07:09:04.874Z,990.41
2019-05-28T07:10:02.511Z,990.42
2019-05-28T07:11:10.247Z,990.47
2019-05-28T07:12:08.974Z,990.47
2019-05-28T07:13:06.903Z,990.41
2019-05-28T07:14:08.519Z,990.39
2019-05-28T07:15:06.597Z,990.5
2019-05-28T07:16:06.849Z,990.44
2019-05-28T07:17:04.246Z,990.49
2019-05-28T07:18:02.956Z,990.54
2019-05-28T07:19:05.014Z,990.42
2019-05-28T07:20:02.210Z,990.44
2019-05-28T07:20:59.754Z,990.49
2019-05-28T07:21:58.161Z,990.47
2019-05-28T07:22:55.309Z,990.5
2019-05-28T07:23:53.207Z,990.5
2019-05-28T07:24:51.077Z,990.51
2019-05-28T07:25:48.406Z,990.42
2019-05-28T07:26:45.998Z,990.42
2019-05-28T07:27:43.516Z,990.42
2019-05-28T07:28:40.790Z,990.44
2019-05-28T07:29:38.077Z,990.47
2019-05-28T07:30:35.737Z,990.47
2019-05-28T07:31:35.390Z,990.48
2019-05-28T07:32:33.039Z,990.38
2019-05-28T07:33:34.773Z,990.5
2019-05-28T07:34:31.723Z,990.47
2019-05-28T07:35:44.394Z,990.54
2019-05-28T07:35:45.443Z,990.54
2019-05-28T07:35:45.636Z,990.54
2019-05-28T07:36:31.864Z,990.48
2019-05-28T07:37:32.896Z,990.6
2019-05-28T07:38:30.315Z,990.55
2019-05-28T07:39:33.736Z,990.58
2019-05-28T07:40:32.395Z,990.5
2019-05-28T07:41:38.790Z,990.36
2019-05-28T07:42:39.060Z,990.54
2019-05-28T07:43:41.295Z,990.48
2019-05-28T07:44:39.537Z,990.5
2019-05-28T07:45:41.386Z,990.47
2019-05-28T07:46:42.297Z,990.43
2019-05-28T07:47:39.682Z,990.5
2019-05-28T07:48:42.734Z,990.43
2019-05-28T07:49:41.684Z,990.53
2019-05-28T07:50:43.151Z,990.5
2019-05-28T07:51:46.488Z,990.5
2019-05-28T07:52:48.169Z,990.56
2019-05-28T07:53:46.177Z,990.61
2019-05-28T07:54:44.195Z,990.57
2019-05-28T07:55:46.139Z,990.53
2019-05-28T07:56:51.755Z,990.47
2019-05-28T07:57:52.829Z,990.59
2019-05-28T07:58:50.796Z,990.6
2019-05-28T07:59:49.334Z,990.51
2019-05-28T08:00:46.458Z,990.54
2019-05-28T08:01:46.444Z,990.48
2019-05-28T08:02:45.009Z,990.57
2019-05-28T08:03:43.001Z,990.53
2019-05-28T08:04:48.551Z,990.54
2019-05-28T08:05:47.069Z,990.51
2019-05-28T08:06:54.683Z,990.53
2019-05-28T08:06:55.073Z,990.53
2019-05-28T08:07:47.921Z,990.57
2019-05-28T08:08:51.259Z,990.58
2019-05-28T08:09:53.251Z,990.47
2019-05-28T08:10:52.545Z,990.63
2019-05-28T08:11:54.308Z,990.6
2019-05-28T08:12:53.081Z,990.64
2019-05-28T08:13:52.491Z,990.57
2019-05-28T08:14:49.480Z,990.58
2019-05-28T08:15:52.144Z,990.63
2019-05-28T08:16:52.946Z,990.6
2019-05-28T08:17:48.043Z,990.51
2019-05-28T08:18:45.954Z,990.57
2019-05-28T08:19:45.238Z,990.6
2019-05-28T08:20:43.871Z,990.6
2019-05-28T08:21:44.474Z,990.52
2019-05-28T08:22:43.318Z,990.64
2019-05-28T08:23:44.033Z,990.6
2019-05-28T08:24:42.547Z,990.51
2019-05-28T08:25:47.612Z,990.54
2019-05-28T08:25:48.189Z,990.54
2019-05-28T08:26:49.709Z,990.49
2019-05-28T08:27:50.181Z,990.6
2019-05-28T08:28:48.460Z,990.58
2019-05-28T08:29:46.755Z,990.49
2019-05-28T08:30:50.876Z,990.44
2019-05-28T08:31:55.748Z,990.54
2019-05-28T08:32:54.769Z,990.57
2019-05-28T08:33:54.151Z,990.58
2019-05-28T08:35:04.927Z,990.52
2019-05-28T08:35:05.476Z,990.52
2019-05-28T08:35:05.974Z,990.52
2019-05-28T08:35:56.752Z,990.64
2019-05-28T08:37:05.280Z,990.57
2019-05-28T08:37:05.687Z,990.57
2019-05-28T08:37:06.641Z,990.57
2019-05-28T08:37:59.508Z,990.54
2019-05-28T08:39:00.161Z,990.55
2019-05-28T08:40:01.674Z,990.55
2019-05-28T08:41:01.916Z,990.61
2019-05-28T08:42:02.664Z,990.57
2019-05-28T08:43:02.438Z,990.61
2019-05-28T08:44:01.953Z,990.61
2019-05-28T08:45:04.740Z,990.52
2019-05-28T08:46:08.804Z,990.6
2019-05-28T08:47:07.185Z,990.61
2019-05-28T08:48:04.728Z,990.61
2019-05-28T08:49:08.549Z,990.61
2019-05-28T08:50:06.313Z,990.6
2019-05-28T08:51:10.082Z,990.66
2019-05-28T08:52:06.305Z,990.54
2019-05-28T08:53:03.999Z,990.49
2019-05-28T08:54:01.967Z,990.59
2019-05-28T08:55:00.295Z,990.54
2019-05-28T08:56:00.862Z,990.52
2019-05-28T08:56:58.326Z,990.57
2019-05-28T08:58:01.652Z,990.43
2019-05-28T08:58:58.535Z,990.41
2019-05-28T08:59:58.993Z,990.34
2019-05-28T09:00:56.860Z,990.41
2019-05-28T09:01:54.154Z,990.35
2019-05-28T09:02:56.515Z,990.34
2019-05-28T09:03:56.102Z,990.41
2019-05-28T09:04:57.481Z,990.41
2019-05-28T09:05:55.684Z,990.41
2019-05-28T09:06:54.675Z,990.41
2019-05-28T09:08:01.622Z,990.37
2019-05-28T09:08:58.918Z,990.38
2019-05-28T09:09:56.326Z,990.38
2019-05-28T09:10:57.334Z,990.35
2019-05-28T09:11:57.294Z,990.37
2019-05-28T09:12:55.047Z,990.29
2019-05-28T09:14:05.176Z,990.35
2019-05-28T09:15:03.268Z,990.41
2019-05-28T09:16:01.398Z,990.4
2019-05-28T09:16:58.907Z,990.37
2019-05-28T09:17:59.560Z,990.41
2019-05-28T09:18:59.106Z,990.44
2019-05-28T09:20:00.035Z,990.48
2019-05-28T09:20:59.456Z,990.49
2019-05-28T09:21:58.927Z,990.44
2019-05-28T09:22:57.016Z,990.4
2019-05-28T09:23:55.997Z,990.43
2019-05-28T09:24:58.451Z,990.51
2019-05-28T09:25:59.847Z,990.4
2019-05-28T09:27:02.519Z,990.49
2019-05-28T09:28:00.373Z,990.43
2019-05-28T09:28:58.827Z,990.37
2019-05-28T09:29:56.118Z,990.35
2019-05-28T09:30:53.581Z,990.4
2019-05-28T09:31:54.973Z,990.34
2019-05-28T09:32:54.522Z,990.4
2019-05-28T09:33:53.572Z,990.4
2019-05-28T09:34:51.975Z,990.34
2019-05-28T09:36:06.347Z,990.26
2019-05-28T09:36:07.455Z,990.26
2019-05-28T09:36:08.247Z,990.26
2019-05-28T09:36:51.208Z,990.32
2019-05-28T09:37:52.272Z,990.32
2019-05-28T09:38:52.188Z,990.35
2019-05-28T09:39:55.801Z,990.3
2019-05-28T09:40:53.447Z,990.29
2019-05-28T09:41:53.251Z,990.36
2019-05-28T09:42:51.068Z,990.36
2019-05-28T09:43:49.847Z,990.28
2019-05-28T09:44:48.321Z,990.23
2019-05-28T09:45:47.275Z,990.32
2019-05-28T09:46:45.964Z,990.29
2019-05-28T09:47:44.383Z,990.34
2019-05-28T09:48:42.978Z,990.28
2019-05-28T09:49:42.717Z,990.29
2019-05-28T09:50:42.894Z,990.38
2019-05-28T09:51:42.024Z,990.28
2019-05-28T09:52:53.788Z,990.38
2019-05-28T09:52:54.530Z,990.38
2019-05-28T09:52:54.920Z,990.38
2019-05-28T09:53:42.116Z,990.41
2019-05-28T09:54:39.722Z,990.38
2019-05-28T09:55:42.680Z,990.39
2019-05-28T09:56:42.438Z,990.39
2019-05-28T09:57:47.849Z,990.36
2019-05-28T09:58:41.610Z,990.29
2019-05-28T09:59:41.891Z,990.36
2019-05-28T10:00:56.187Z,990.32
2019-05-28T10:00:57.571Z,990.32
2019-05-28T10:00:58.356Z,990.32
2019-05-28T10:01:37.878Z,990.3
2019-05-28T10:02:35.912Z,990.27
2019-05-28T10:03:41.578Z,990.29
2019-05-28T10:04:50.264Z,990.35
2019-05-28T10:06:02.017Z,990.35
2019-05-28T10:06:15.126Z,990.35
2019-05-28T10:06:16.149Z,990.35
2019-05-28T10:06:51.415Z,990.5
2019-05-28T10:07:51.191Z,990.56
2019-05-28T10:08:50.307Z,990.66
2019-05-28T10:09:53.842Z,990.6
2019-05-28T10:10:51.841Z,990.74
2019-05-28T10:11:54.897Z,990.77
2019-05-28T10:12:53.725Z,990.88
2019-05-28T10:13:51.860Z,990.9
2019-05-28T10:14:55.851Z,990.91
2019-05-28T10:15:57.325Z,990.87
2019-05-28T10:17:04.428Z,990.94
2019-05-28T10:18:04.839Z,990.93
2019-05-28T10:19:03.414Z,990.91
2019-05-28T10:20:08.189Z,990.93
2019-05-28T10:21:17.797Z,990.89
2019-05-28T10:21:18.332Z,990.89
2019-05-28T10:21:19.432Z,990.89
2019-05-28T10:22:07.090Z,990.89
2019-05-28T10:23:04.852Z,990.82
2019-05-28T10:24:08.398Z,990.8
2019-05-28T10:25:19.896Z,990.78
2019-05-28T10:26:17.813Z,990.8
2019-05-28T10:27:21.291Z,990.8
2019-05-28T10:28:20.192Z,990.86
2019-05-28T10:29:17.641Z,990.91
2019-05-28T10:30:15.293Z,990.88
2019-05-28T10:31:14.061Z,990.83
2019-05-28T10:32:15.957Z,990.91
2019-05-28T10:33:20.191Z,990.83
2019-05-28T10:34:20.795Z,990.87
2019-05-28T10:35:19.949Z,990.94
2019-05-28T10:36:34.499Z,990.9
2019-05-28T10:36:35.398Z,990.9
2019-05-28T10:36:36.017Z,990.9
2019-05-28T10:37:20.492Z,990.97
2019-05-28T10:38:21.170Z,991.03
2019-05-28T10:39:19.035Z,991.08
2019-05-28T10:40:17.262Z,991.16
2019-05-28T10:41:17.076Z,991.19
2019-05-28T10:42:20.533Z,991.3
2019-05-28T10:43:18.956Z,991.31
2019-05-28T10:44:17.406Z,991.4
2019-05-28T10:45:16.193Z,991.34
2019-05-28T10:46:18.030Z,991.43
2019-05-28T10:47:19.486Z,991.55
2019-05-28T10:48:16.903Z,991.53
2019-05-28T10:49:14.790Z,991.58
2019-05-28T10:50:13.572Z,991.67
2019-05-28T10:51:11.164Z,991.66
2019-05-28T10:52:12.211Z,991.84
2019-05-28T10:53:15.610Z,991.79
2019-05-28T10:54:15.662Z,991.87
2019-05-28T10:55:25.956Z,991.9
2019-05-28T10:56:24.324Z,991.73
2019-05-28T10:57:26.188Z,991.84
2019-05-28T10:58:26.848Z,991.87
2019-05-28T10:59:25.158Z,991.82
2019-05-28T11:00:22.605Z,991.85
2019-05-28T11:01:20.733Z,991.84
2019-05-28T11:02:26.753Z,991.81
2019-05-28T11:03:25.675Z,991.75
2019-05-28T11:04:24.674Z,991.75
2019-05-28T11:05:24.075Z,991.79
2019-05-28T11:06:22.607Z,991.76
2019-05-28T11:07:23.165Z,991.76
2019-05-28T11:08:21.009Z,991.78
2019-05-28T11:09:20.511Z,991.72
2019-05-28T11:10:24.275Z,991.75
2019-05-28T11:11:20.214Z,991.64
2019-05-28T11:12:23.856Z,991.73
2019-05-28T11:13:30.649Z,991.66
2019-05-28T11:14:35.093Z,991.73
2019-05-28T11:15:36.017Z,991.78
2019-05-28T11:16:34.724Z,991.67
2019-05-28T11:17:32.453Z,991.67
2019-05-28T11:18:30.299Z,991.73
2019-05-28T11:19:27.795Z,991.61
2019-05-28T11:20:26.748Z,991.57
2019-05-28T11:21:27.181Z,991.56
2019-05-28T11:22:26.339Z,991.57
2019-05-28T11:23:26.939Z,991.6
2019-05-28T11:24:25.598Z,991.59
2019-05-28T11:25:24.134Z,991.54
2019-05-28T11:26:23.485Z,991.59
2019-05-28T11:27:24.895Z,991.63
2019-05-28T11:28:24.656Z,991.63
2019-05-28T11:29:28.626Z,991.67
2019-05-28T11:30:26.086Z,991.69
2019-05-28T11:31:23.924Z,991.72
2019-05-28T11:32:22.008Z,991.67
2019-05-28T11:33:22.555Z,991.72
2019-05-28T11:34:20.053Z,991.62
2019-05-28T11:35:18.442Z,991.73
2019-05-28T11:36:27.444Z,991.67
2019-05-28T11:37:32.979Z,991.73
2019-05-28T11:38:30.531Z,991.6
2019-05-28T11:39:28.183Z,991.67
2019-05-28T11:40:29.971Z,991.7
2019-05-28T11:41:41.472Z,991.7
2019-05-28T11:41:42.063Z,991.7
2019-05-28T11:41:42.331Z,991.7
2019-05-28T11:42:30.399Z,991.75
2019-05-28T11:43:30.478Z,991.73
2019-05-28T11:44:28.263Z,991.67
2019-05-28T11:45:25.786Z,991.66
2019-05-28T11:46:23.599Z,991.66
2019-05-28T11:47:21.585Z,991.7
2019-05-28T11:48:20.584Z,991.69
2019-05-28T11:49:20.751Z,991.7
2019-05-28T11:50:20.690Z,991.7
2019-05-28T11:51:19.682Z,991.76
2019-05-28T11:52:18.661Z,991.82
2019-05-28T11:53:23.367Z,991.88
2019-05-28T11:54:26.291Z,991.87
2019-05-28T11:55:23.902Z,991.92
2019-05-28T11:56:25.339Z,991.97
2019-05-28T11:57:22.936Z,992.03
2019-05-28T11:58:21.706Z,992.03
2019-05-28T11:59:22.516Z,991.98
2019-05-28T12:00:22.573Z,992.01
2019-05-28T12:01:33.620Z,992.01
2019-05-28T12:01:34.360Z,992.01
2019-05-28T12:01:35.047Z,992.01
2019-05-28T12:02:27.960Z,992.01